createdAt,value
2023-12-07T00:22:30.105Z,1022.04
2023-12-07T00:51:09.742Z,1022.3
2023-12-07T01:20:27.069Z,1022.31
2023-12-07T01:49:17.615Z,1022.3
2023-12-07T02:18:07.294Z,1022.32
2023-12-07T02:47:05.993Z,1022.41
2023-12-07T03:16:12.006Z,1022.41
2023-12-07T03:45:13.157Z,1022.38
2023-12-07T04:14:10.551Z,1022.43
2023-12-07T04:43:15.731Z,1022.3
2023-12-07T05:12:16.072Z,1022.36
2023-12-07T05:41:22.214Z,1022.44
2023-12-07T06:10:25.496Z,1022.58
2023-12-07T06:39:24.437Z,1022.68
2023-12-07T07:08:21.162Z,1022.38
2023-12-07T07:37:17.358Z,1022.3
2023-12-07T08:06:16.505Z,1022.4
2023-12-07T08:35:33.313Z,1022.52
2023-12-07T09:04:34.904Z,1022.1
2023-12-07T09:33:30.575Z,1022.23
2023-12-07T10:02:32.997Z,1021.92
2023-12-07T10:31:29.447Z,1021.59
2023-12-07T11:00:14.536Z,1021.19
2023-12-07T11:29:29.614Z,1020.4
2023-12-07T11:57:40.587Z,1019.88
2023-12-07T12:26:42.889Z,1019.89
2023-12-07T12:55:42.344Z,1019.87
2023-12-07T13:24:32.157Z,1019.91
2023-12-07T13:53:22.989Z,1019.18
2023-12-07T14:22:29.497Z,1018.38
2023-12-07T14:51:18.568Z,1018.14
2023-12-07T15:20:17.338Z,1018.09
2023-12-07T15:49:10.331Z,1017.21
2023-12-07T16:17:53.883Z,1017.11
2023-12-07T16:46:46.319Z,1016.72
2023-12-07T17:15:36.643Z,1016.19
2023-12-07T17:44:34.447Z,1016.01
2023-12-07T18:13:34.125Z,1016.07
2023-12-07T18:42:43.055Z,1015.91
2023-12-07T19:11:35.129Z,1016.17
2023-12-07T19:40:42.072Z,1015.56
2023-12-07T20:09:42.414Z,1014.95
2023-12-07T20:38:36.314Z,1014.38
2023-12-07T21:07:41.742Z,1013.86
2023-12-07T21:36:55.285Z,1013.41
2023-12-07T22:05:59.265Z,1013.25
2023-12-07T22:35:02.042Z,1012.67
2023-12-07T23:03:45.525Z,1012.62
2023-12-07T23:32:47.264Z,1012.07
